SZX weather

Shenzhen Bao'an International Airport
Shenzhen, Guangdong Province, China

Public forecast

Using degrees Celsius for public forecast. Weather courtesy of forecast.io.

Current aviation weather report (METAR) for Shenzhen Bao'an International Airport

Retrieved 2020/01/26 17:00 UTC (17 minutes ago):

ZGSZ 261700Z 02006MPS CAVOK 12/06 Q1017 NOSIG

Aviation forecast (TAF) for Shenzhen Bao'an International Airport

Retrieved 2020/01/26 12:00 UTC (5 hours ago):

TAF ZGSZ 260916Z 2612/2712 36006MPS 6000 SCT020 BKN040 TX17/2706Z TN10/2622Z